Time;durP1;ratioP1;P1;durP2;ratioP2;P2;SDS_P1;SDS_P2;PMS_P1;PMS_P2;Temp;Humidity;BMP_temperature;BMP_pressure;BME280_temperature;BME280_humidity;BME280_pressure;Samples;Min_cycle;Max_cycle;Signal;HPM_P1;HPM_P2
2022/04/15 00:02:06;;;;;;;14.77;11.13;;;;;;;10.72;79.26;101517.78;5013719;28;20221;-82
2022/04/15 00:04:32;;;;;;;18.03;11.70;;;;;;;10.64;79.34;101518.13;5006402;28;20217;-83
2022/04/15 00:07:00;;;;;;;16.27;12.23;;;;;;;10.62;79.40;101512.03;5001173;28;20196;-83
2022/04/15 00:09:27;;;;;;;15.10;12.13;;;;;;;10.58;79.34;101514.91;4994643;28;20214;-83
2022/04/15 00:11:56;;;;;;;18.77;12.23;;;;;;;10.53;79.33;101517.81;5013161;28;20245;-83
2022/04/15 00:14:23;;;;;;;17.67;12.03;;;;;;;10.50;79.48;101512.63;5010394;28;20227;-83
2022/04/15 00:16:50;;;;;;;20.93;11.47;;;;;;;10.43;79.44;101509.41;4994508;28;20218;-82
2022/04/15 00:19:16;;;;;;;15.70;11.77;;;;;;;10.37;79.52;101519.50;5000677;28;20238;-83
2022/04/15 00:21:43;;;;;;;16.53;12.30;;;;;;;10.32;79.50;101510.88;4995514;28;20703;-81
2022/04/15 00:24:10;;;;;;;16.27;12.33;;;;;;;10.29;79.47;101517.22;5008113;28;20219;-82
2022/04/15 00:26:38;;;;;;;19.30;12.83;;;;;;;10.27;80.20;101520.88;5012363;28;20599;-82
2022/04/15 00:29:06;;;;;;;19.20;13.93;;;;;;;10.23;80.13;101517.50;4996808;28;20283;-82
2022/04/15 00:31:33;;;;;;;21.80;14.13;;;;;;;10.19;79.91;101515.94;5014285;28;20290;-81
2022/04/15 00:34:00;;;;;;;18.50;14.43;;;;;;;10.15;79.66;101511.66;5014290;28;20210;-82
2022/04/15 00:36:27;;;;;;;18.20;14.00;;;;;;;10.12;80.01;101506.47;5014099;28;20283;-82
2022/04/15 00:38:53;;;;;;;23.10;14.40;;;;;;;10.10;79.94;101516.31;5014394;28;20203;-82
2022/04/15 00:41:20;;;;;;;19.13;14.73;;;;;;;10.08;80.15;101523.53;5012239;28;20233;-82
2022/04/15 00:43:48;;;;;;;24.97;14.67;;;;;;;10.05;80.43;101518.34;5004789;28;20206;-81
2022/04/15 00:46:14;;;;;;;21.60;15.67;;;;;;;10.02;80.34;101519.38;4994626;28;20212;-82
2022/04/15 00:48:41;;;;;;;21.17;14.63;;;;;;;9.98;80.67;101511.59;4994587;28;20211;-82
2022/04/15 00:51:08;;;;;;;21.87;14.40;;;;;;;9.94;80.06;101520.66;4993810;28;20585;-83
2022/04/15 00:53:34;;;;;;;19.70;13.70;;;;;;;9.90;80.08;101529.72;5009829;28;20622;-83
2022/04/15 00:56:03;;;;;;;20.70;13.60;;;;;;;9.84;80.46;101525.56;5009676;28;20239;-83
2022/04/15 00:58:32;;;;;;;20.50;13.63;;;;;;;9.82;80.45;101537.19;5008825;28;20688;-81
2022/04/15 01:01:01;;;;;;;21.37;14.80;;;;;;;9.78;80.22;101536.47;5005866;28;20242;-82
2022/04/15 01:03:29;;;;;;;23.53;14.37;;;;;;;9.75;80.58;101534.81;5010081;28;20257;-81
2022/04/15 01:05:59;;;;;;;19.17;14.77;;;;;;;9.72;80.97;101537.59;5015686;28;20322;-82
2022/04/15 01:08:28;;;;;;;23.87;13.93;;;;;;;9.71;80.85;101535.00;5015543;28;20617;-82
2022/04/15 01:10:57;;;;;;;22.27;15.40;;;;;;;9.70;81.11;101536.81;5015964;28;20199;-82
2022/04/15 01:13:25;;;;;;;23.33;15.17;;;;;;;9.68;81.13;101538.66;5019760;28;20203;-81
2022/04/15 01:15:54;;;;;;;20.47;14.50;;;;;;;9.65;81.25;101537.97;5019607;28;20228;-80
2022/04/15 01:18:22;;;;;;;24.97;14.93;;;;;;;9.65;81.54;101540.63;5017049;28;20217;-81
2022/04/15 01:20:50;;;;;;;30.27;18.07;;;;;;;9.63;81.64;101537.16;5015990;28;20420;-81
2022/04/15 01:23:18;;;;;;;34.73;20.83;;;;;;;9.61;81.07;101534.59;5014284;28;20660;-80
2022/04/15 01:25:45;;;;;;;31.13;19.00;;;;;;;9.61;81.77;101539.03;5011227;28;20230;-81
2022/04/15 01:28:16;;;;;;;29.90;19.57;;;;;;;9.60;81.94;101547.94;5004422;28;20238;-80
2022/04/15 01:30:43;;;;;;;24.97;17.93;;;;;;;9.57;82.15;101538.31;5019054;28;20622;-80
2022/04/15 01:33:09;;;;;;;29.67;17.87;;;;;;;9.54;81.96;101546.41;5000178;28;20207;-80
2022/04/15 01:35:36;;;;;;;29.03;17.53;;;;;;;9.51;82.06;101543.88;5000600;28;20242;-80
2022/04/15 01:38:06;;;;;;;25.57;17.80;;;;;;;9.49;82.33;101543.13;5000625;28;20211;-82
2022/04/15 01:40:34;;;;;;;23.03;18.47;;;;;;;9.47;81.72;101547.63;5019998;28;20219;-80
2022/04/15 01:43:00;;;;;;;22.87;16.93;;;;;;;9.46;82.08;101545.03;5019530;28;20206;-82
2022/04/15 01:45:27;;;;;;;27.33;19.10;;;;;;;9.45;82.36;101549.50;5019466;28;20226;-81
2022/04/15 01:47:54;;;;;;;26.27;18.03;;;;;;;9.46;82.87;101555.69;5018758;28;20214;-81
2022/04/15 01:50:20;;;;;;;32.37;19.10;;;;;;;9.46;82.50;101545.91;5019267;28;20207;-81
2022/04/15 01:52:47;;;;;;;29.70;18.03;;;;;;;9.45;83.02;101557.47;5018756;28;20207;-81
2022/04/15 01:55:13;;;;;;;28.20;18.43;;;;;;;9.44;82.30;101547.78;5010799;28;20515;-81
2022/04/15 01:57:41;;;;;;;25.80;18.23;;;;;;;9.43;82.84;101562.00;5004524;28;20295;-81
2022/04/15 02:00:09;;;;;;;30.43;19.03;;;;;;;9.40;82.98;101562.13;5013114;28;20566;-81
2022/04/15 02:02:35;;;;;;;26.33;18.47;;;;;;;9.37;83.03;101564.91;5019735;28;20211;-81
2022/04/15 02:05:02;;;;;;;25.70;17.57;;;;;;;9.35;82.25;101564.09;5019701;28;20239;-81
2022/04/15 02:07:29;;;;;;;23.23;16.73;;;;;;;9.34;82.43;101563.25;5020169;28;20215;-81
2022/04/15 02:09:55;;;;;;;23.63;15.60;;;;;;;9.32;82.80;101559.78;5019581;28;20199;-80
2022/04/15 02:12:22;;;;;;;20.43;14.33;;;;;;;9.30;82.22;101555.50;5019481;28;20205;-81
2022/04/15 02:14:50;;;;;;;22.50;16.53;;;;;;;9.27;82.73;101564.47;5019929;28;20658;-81
2022/04/15 02:17:17;;;;;;;20.50;14.30;;;;;;;9.26;82.61;101570.72;5019595;28;20541;-81
2022/04/15 02:19:46;;;;;;;15.77;13.60;;;;;;;9.26;82.56;101572.50;5016105;28;20218;-81
2022/04/15 02:22:13;;;;;;;18.83;12.97;;;;;;;9.23;83.25;101569.97;4999663;28;20227;-80
2022/04/15 02:24:39;;;;;;;20.93;13.00;;;;;;;9.21;82.66;101571.81;4998237;28;20231;-81
2022/04/15 02:27:06;;;;;;;21.07;13.93;;;;;;;9.21;82.94;101571.81;5002908;28;20205;-81
2022/04/15 02:29:33;;;;;;;18.03;13.50;;;;;;;9.20;83.32;101570.97;5018575;28;20215;-81
2022/04/15 02:32:01;;;;;;;20.30;12.93;;;;;;;9.21;83.17;101569.16;5009603;28;20204;-81
2022/04/15 02:34:28;;;;;;;16.10;12.33;;;;;;;9.19;83.46;101573.69;4999186;28;20224;-81
2022/04/15 02:36:54;;;;;;;15.83;13.17;;;;;;;9.17;83.31;101570.22;4998719;28;20286;-82
2022/04/15 02:39:21;;;;;;;18.93;13.50;;;;;;;9.16;83.24;101573.81;5010179;28;20209;-81
2022/04/15 02:41:51;;;;;;;16.10;13.00;;;;;;;9.14;83.25;101570.34;5019395;28;20834;-81
2022/04/15 02:44:18;;;;;;;18.77;12.40;;;;;;;9.14;83.20;101575.66;5019713;28;20222;-81
2022/04/15 02:46:45;;;;;;;17.97;12.13;;;;;;;9.14;83.34;101575.66;5020081;28;20207;-80
2022/04/15 02:49:13;;;;;;;23.17;13.60;;;;;;;9.13;83.73;101568.66;5020315;28;20314;-81
2022/04/15 02:51:39;;;;;;;17.47;13.43;;;;;;;9.12;83.46;101574.88;5020225;28;20245;-80
2022/04/15 02:54:06;;;;;;;19.10;12.07;;;;;;;9.11;83.04;101573.16;5020170;28;20244;-82
2022/04/15 02:56:33;;;;;;;13.77;9.83;;;;;;;9.09;83.62;101572.34;5001810;28;20215;-82
2022/04/15 02:58:59;;;;;;;11.50;7.63;;;;;;;9.05;83.33;101576.94;4999948;28;20682;-81
2022/04/15 03:01:26;;;;;;;7.80;7.00;;;;;;;9.01;82.53;101576.19;4999964;28;20238;-81
2022/04/15 03:03:52;;;;;;;7.00;6.20;;;;;;;8.94;82.52;101576.53;4999655;28;20294;-81
2022/04/15 03:06:20;;;;;;;7.43;6.33;;;;;;;8.86;81.53;101571.53;5011320;28;20298;-82
2022/04/15 03:08:47;;;;;;;6.70;5.97;;;;;;;8.83;81.68;101576.97;5018790;28;20211;-82
2022/04/15 03:11:13;;;;;;;7.03;4.60;;;;;;;8.81;81.18;101578.81;5018366;28;20203;-81
2022/04/15 03:13:40;;;;;;;6.50;5.23;;;;;;;8.79;81.03;101575.34;5018588;28;20203;-81
2022/04/15 03:16:06;;;;;;;6.20;4.77;;;;;;;8.77;80.70;101585.19;5018712;28;20231;-82
2022/04/15 03:18:33;;;;;;;5.40;4.90;;;;;;;8.75;81.00;101583.53;5018290;28;20286;-81
2022/04/15 03:21:00;;;;;;;7.07;5.23;;;;;;;8.74;80.94;101579.16;5018095;28;20227;-81
2022/04/15 03:23:28;;;;;;;5.63;5.13;;;;;;;8.73;80.75;101585.38;5001332;28;20247;-81
2022/04/15 03:25:57;;;;;;;6.97;4.83;;;;;;;8.70;80.50;101575.75;5002106;28;20249;-81
2022/04/15 03:28:23;;;;;;;6.30;4.67;;;;;;;8.70;79.73;101581.06;5017598;28;20199;-81
2022/04/15 03:30:50;;;;;;;6.47;5.30;;;;;;;8.68;79.37;101581.13;5007184;28;20203;-81
2022/04/15 03:33:17;;;;;;;5.97;5.00;;;;;;;8.67;79.27;101582.03;5002953;28;20217;-82
2022/04/15 03:35:43;;;;;;;9.13;5.27;;;;;;;8.68;79.19;101585.56;5018617;28;20235;-81
2022/04/15 03:38:10;;;;;;;7.33;4.90;;;;;;;8.68;79.31;101588.22;5018554;28;20206;-80
2022/04/15 03:40:38;;;;;;;8.77;5.23;;;;;;;8.68;79.23;101590.88;4999648;28;20208;-81
2022/04/15 03:43:04;;;;;;;6.20;4.97;;;;;;;8.68;79.30;101591.72;4998584;28;20227;-80
2022/04/15 03:45:31;;;;;;;5.80;5.17;;;;;;;8.68;79.54;101588.22;4997321;28;20231;-81
2022/04/15 03:47:58;;;;;;;6.07;5.30;;;;;;;8.66;79.09;101590.94;4997558;28;20211;-81
2022/04/15 03:50:25;;;;;;;7.87;4.90;;;;;;;8.66;78.48;101592.72;5012117;28;20665;-82
2022/04/15 03:52:52;;;;;;;8.87;5.90;;;;;;;8.64;78.67;101597.22;5016270;28;20203;-82
2022/04/15 03:55:19;;;;;;;8.03;5.53;;;;;;;8.62;78.74;101605.25;5017070;28;20234;-81
2022/04/15 03:57:47;;;;;;;8.40;5.63;;;;;;;8.59;78.95;101600.09;5016450;28;20207;-81
2022/04/15 04:00:18;;;;;;;8.23;5.60;;;;;;;8.58;78.77;101598.34;5017194;28;20203;-83
2022/04/15 04:02:45;;;;;;;7.00;5.87;;;;;;;8.57;78.84;101606.38;5017212;28;20222;-81
2022/04/15 04:05:12;;;;;;;7.17;5.57;;;;;;;8.56;78.70;101608.16;5017336;28;20603;-80
2022/04/15 04:07:39;;;;;;;7.00;5.80;;;;;;;8.56;79.88;101610.81;5016661;28;20278;-80
2022/04/15 04:10:07;;;;;;;8.60;6.00;;;;;;;8.56;79.96;101607.31;5017218;28;20626;-80
2022/04/15 04:12:36;;;;;;;7.30;6.33;;;;;;;8.56;79.04;101604.66;5016374;28;20598;-81
2022/04/15 04:15:06;;;;;;;8.57;6.90;;;;;;;8.59;79.78;101609.84;5004536;28;20224;-82
2022/04/15 04:17:33;;;;;;;9.57;6.77;;;;;;;8.59;79.93;101599.22;4997072;28;20202;-81
2022/04/15 04:20:01;;;;;;;8.77;7.30;;;;;;;8.59;79.21;101613.38;5000331;28;20210;-81
2022/04/15 04:22:29;;;;;;;8.80;7.63;;;;;;;8.58;79.52;101613.44;5016653;28;20227;-81
2022/04/15 04:24:55;;;;;;;10.57;7.77;;;;;;;8.59;79.99;101620.47;5016744;28;20227;-80
2022/04/15 04:27:22;;;;;;;8.63;7.40;;;;;;;8.58;80.30;101618.72;5016955;28;20242;-81
2022/04/15 04:29:49;;;;;;;9.57;7.70;;;;;;;8.58;79.86;101619.59;5008363;28;20208;-81
2022/04/15 04:32:18;;;;;;;10.97;7.87;;;;;;;8.57;79.07;101622.31;5015744;28;20210;-81
2022/04/15 04:34:44;;;;;;;10.77;9.67;;;;;;;8.56;79.74;101625.88;5017016;28;20238;-82
2022/04/15 04:37:11;;;;;;;13.27;10.77;;;;;;;8.53;79.88;101628.66;5016130;28;20746;-82
2022/04/15 04:39:37;;;;;;;15.37;11.27;;;;;;;8.51;79.86;101622.53;5017103;28;20538;-81
2022/04/15 04:42:05;;;;;;;16.60;11.60;;;;;;;8.49;79.79;101635.00;5016064;28;20227;-81
2022/04/15 04:44:33;;;;;;;13.97;10.47;;;;;;;8.45;79.39;101628.06;5017016;28;20227;-81
2022/04/15 04:47:00;;;;;;;13.00;10.87;;;;;;;8.43;79.96;101641.41;5015982;28;20199;-81
2022/04/15 04:49:28;;;;;;;12.17;10.73;;;;;;;8.43;79.60;101643.19;5016968;28;20207;-81
2022/04/15 04:51:55;;;;;;;12.23;9.50;;;;;;;8.41;79.42;101653.03;5015055;28;20211;-81
2022/04/15 04:54:22;;;;;;;9.67;7.50;;;;;;;8.38;78.74;101654.03;5010104;28;20265;-81
2022/04/15 04:56:49;;;;;;;8.53;7.67;;;;;;;8.34;79.51;101658.56;5017007;28;20568;-80
2022/04/15 04:59:15;;;;;;;12.70;9.27;;;;;;;8.35;79.26;101662.97;5017486;28;20211;-80
2022/04/15 05:01:42;;;;;;;10.80;9.23;;;;;;;8.34;78.88;101663.88;5008933;28;20223;-81
2022/04/15 05:04:09;;;;;;;8.40;7.50;;;;;;;8.33;79.18;101664.81;5013977;28;20222;-81
2022/04/15 05:06:37;;;;;;;9.50;6.70;;;;;;;8.31;79.04;101674.56;5016329;28;20209;-82
2022/04/15 05:09:03;;;;;;;8.40;6.10;;;;;;;8.30;79.72;101666.66;5017044;28;20225;-82
2022/04/15 05:11:30;;;;;;;7.67;5.80;;;;;;;8.27;79.16;101672.94;5018014;28;20221;-81
2022/04/15 05:13:56;;;;;;;6.53;5.47;;;;;;;8.26;78.90;101668.56;5007457;28;20203;-81
2022/04/15 05:16:23;;;;;;;7.87;6.60;;;;;;;8.25;79.37;101672.13;5017426;28;20852;-82
2022/04/15 05:18:49;;;;;;;8.77;6.77;;;;;;;8.24;79.83;101669.56;5015409;28;20561;-81
2022/04/15 05:21:16;;;;;;;7.90;6.60;;;;;;;8.25;80.38;101677.44;5016533;28;20207;-81
2022/04/15 05:23:45;;;;;;;7.03;6.20;;;;;;;8.27;79.69;101683.56;5016416;28;20209;-81
2022/04/15 05:26:12;;;;;;;7.17;6.23;;;;;;;8.26;80.19;101684.50;5016325;28;20238;-81
2022/04/15 05:28:38;;;;;;;7.00;6.27;;;;;;;8.27;80.12;101682.69;5015900;28;20202;-81
2022/04/15 05:31:05;;;;;;;7.07;6.27;;;;;;;8.26;80.14;101680.97;4999835;28;20204;-81
2022/04/15 05:33:32;;;;;;;7.97;5.50;;;;;;;8.28;80.31;101689.75;5015297;28;20222;-81
2022/04/15 05:35:59;;;;;;;6.37;5.77;;;;;;;8.29;80.31;101688.81;5015542;28;20238;-80
2022/04/15 05:38:25;;;;;;;7.10;6.40;;;;;;;8.28;79.97;101689.75;5016117;28;20209;-81
2022/04/15 05:40:53;;;;;;;8.40;6.37;;;;;;;8.30;80.21;101699.38;5015668;28;20207;-81
2022/04/15 05:43:20;;;;;;;7.07;6.37;;;;;;;8.30;80.53;101699.38;5010468;28;20599;-81
2022/04/15 05:45:46;;;;;;;7.67;6.13;;;;;;;8.30;80.34;101693.22;5015818;28;20231;-82
2022/04/15 05:48:14;;;;;;;7.70;6.90;;;;;;;8.30;80.56;101699.38;5015573;28;20263;-81
2022/04/15 05:50:41;;;;;;;6.93;6.23;;;;;;;8.29;80.70;101700.31;5016099;28;20211;-81
2022/04/15 05:53:07;;;;;;;7.70;6.83;;;;;;;8.31;80.43;101709.09;5015664;28;20218;-81
2022/04/15 05:55:35;;;;;;;7.70;6.47;;;;;;;8.31;81.07;101708.22;5011033;28;20238;-82
2022/04/15 05:58:03;;;;;;;8.80;6.30;;;;;;;8.31;80.94;101719.69;4999828;28;20249;-81
2022/04/15 06:00:30;;;;;;;7.93;6.80;;;;;;;8.31;81.76;101716.19;5004068;28;20269;-82
2022/04/15 06:02:57;;;;;;;7.90;7.13;;;;;;;8.31;81.84;101717.03;5004001;28;20220;-82
2022/04/15 06:05:24;;;;;;;6.97;6.17;;;;;;;8.32;81.86;101723.25;5005301;28;20706;-81
2022/04/15 06:07:51;;;;;;;7.97;7.13;;;;;;;8.32;81.49;101723.25;5009176;28;20730;-81
2022/04/15 06:10:18;;;;;;;7.53;6.53;;;;;;;8.32;82.57;101731.22;5009285;28;20218;-81
2022/04/15 06:13:04;;;;;;;8.63;6.57;;;;;;;8.31;81.96;101725.00;5004147;28;20199;-80
2022/04/15 06:15:32;;;;;;;6.33;5.63;;;;;;;8.32;81.83;101732.06;5003926;28;20317;-81
2022/04/15 06:18:00;;;;;;;7.07;6.00;;;;;;;8.31;82.26;101727.66;5006248;28;20206;-81
2022/04/15 06:20:26;;;;;;;6.90;6.17;;;;;;;8.32;82.89;101736.53;4999415;28;20206;-81
2022/04/15 06:22:53;;;;;;;7.40;5.70;;;;;;;8.31;83.02;101738.28;5013082;28;20719;-81
2022/04/15 06:25:20;;;;;;;7.27;5.70;;;;;;;8.31;83.21;101746.25;5011035;28;20231;-81
2022/04/15 06:27:47;;;;;;;7.87;5.80;;;;;;;8.30;83.30;101749.81;5001891;28;20211;-81
2022/04/15 06:30:13;;;;;;;7.60;6.20;;;;;;;8.28;83.51;101754.31;5004208;28;20551;-81
2022/04/15 06:32:41;;;;;;;6.87;5.83;;;;;;;8.28;83.65;101756.97;5011006;28;20207;-81
2022/04/15 06:35:09;;;;;;;6.93;6.23;;;;;;;8.26;83.87;101757.94;5009041;28;20230;-81
2022/04/15 06:37:35;;;;;;;6.80;6.10;;;;;;;8.25;84.20;101754.41;5004471;28;20207;-82
2022/04/15 06:40:02;;;;;;;9.20;6.53;;;;;;;8.27;83.78;101755.22;5007691;28;20213;-81
2022/04/15 06:42:30;;;;;;;8.10;7.23;;;;;;;8.31;84.83;101746.25;5005980;28;20422;-81
2022/04/15 06:44:58;;;;;;;11.40;9.30;;;;;;;8.34;84.25;101746.16;5004713;28;20218;-82
2022/04/15 06:47:25;;;;;;;12.67;10.30;;;;;;;8.37;84.58;101752.28;5007340;28;20199;-82
2022/04/15 06:49:53;;;;;;;14.43;10.53;;;;;;;8.39;84.35;101763.72;5005100;28;20204;-81
2022/04/15 06:52:19;;;;;;;14.00;10.20;;;;;;;8.38;84.53;101765.50;5000361;28;20206;-82
2022/04/15 06:54:46;;;;;;;16.27;10.63;;;;;;;8.39;84.46;101761.94;5002991;28;20227;-81
2022/04/15 06:57:12;;;;;;;13.47;10.50;;;;;;;8.40;84.96;101757.50;5005435;28;20223;-82
2022/04/15 06:59:39;;;;;;;13.47;10.53;;;;;;;8.41;85.30;101764.53;5008597;28;20222;-81
2022/04/15 07:02:06;;;;;;;14.03;10.73;;;;;;;8.42;84.41;101756.47;5003178;28;20227;-81
2022/04/15 07:04:34;;;;;;;14.83;11.03;;;;;;;8.43;85.13;101750.25;5001707;28;20227;-81
2022/04/15 07:07:02;;;;;;;14.80;10.40;;;;;;;8.45;84.35;101756.38;4999016;28;20732;-81
2022/04/15 07:09:29;;;;;;;12.07;9.40;;;;;;;8.48;84.27;101760.72;5006104;28;20231;-81
2022/04/15 07:11:56;;;;;;;10.77;8.53;;;;;;;8.48;84.58;101764.22;5003399;28;20254;-81
2022/04/15 07:14:23;;;;;;;11.17;10.00;;;;;;;8.50;84.26;101767.69;5008097;28;20263;-81
2022/04/15 07:16:49;;;;;;;10.03;8.77;;;;;;;8.54;83.78;101768.47;5004032;28;20211;-81
2022/04/15 07:19:16;;;;;;;11.00;8.50;;;;;;;8.55;83.51;101775.50;5006519;28;20852;-81
2022/04/15 07:21:43;;;;;;;10.27;7.67;;;;;;;8.54;83.04;101773.78;5007193;28;20982;-81
2022/04/15 07:24:11;;;;;;;8.73;7.83;;;;;;;8.57;82.45;101771.00;5008674;28;20241;-81
2022/04/15 07:26:38;;;;;;;9.43;7.60;;;;;;;8.60;83.07;101765.56;5006715;28;20199;-82
2022/04/15 07:29:05;;;;;;;8.80;7.90;;;;;;;8.64;82.42;101754.78;5002464;28;20214;-82
2022/04/15 07:31:32;;;;;;;9.90;8.03;;;;;;;8.72;82.44;101757.16;5008595;28;20230;-82
2022/04/15 07:33:59;;;;;;;11.63;7.97;;;;;;;8.78;82.09;101748.91;5005948;28;20207;-81
2022/04/15 07:36:48;;;;;;;8.33;7.33;;;;;;;8.85;81.40;101760.19;5006642;28;20202;-81
2022/04/15 07:39:16;;;;;;;9.37;8.00;;;;;;;8.95;81.53;101765.09;5001941;28;20204;-82
2022/04/15 07:41:45;;;;;;;9.00;7.37;;;;;;;9.04;81.93;101767.38;5007230;28;20206;-81
2022/04/15 07:44:12;;;;;;;8.30;6.43;;;;;;;9.15;81.32;101768.75;5004256;28;20242;-82
2022/04/15 07:46:40;;;;;;;8.40;7.40;;;;;;;9.24;80.57;101771.06;5016397;28;20209;-81
2022/04/15 07:49:07;;;;;;;7.73;6.10;;;;;;;9.34;80.68;101767.09;5008635;28;20211;-82
2022/04/15 07:51:34;;;;;;;7.10;5.47;;;;;;;9.41;79.71;101779.22;5016979;28;20215;-82
2022/04/15 07:54:01;;;;;;;6.77;6.03;;;;;;;9.48;79.02;101783.38;5018200;28;20687;-81
2022/04/15 07:56:29;;;;;;;7.27;5.37;;;;;;;9.54;78.60;101790.22;5018155;28;20215;-81
2022/04/15 07:58:56;;;;;;;6.37;5.30;;;;;;;9.58;78.05;101783.84;5018585;28;20661;-81
2022/04/15 08:01:22;;;;;;;7.07;5.77;;;;;;;9.63;77.70;101790.72;5018490;28;20202;-81
2022/04/15 08:03:49;;;;;;;6.47;5.50;;;;;;;9.70;77.54;101788.66;5015403;28;20226;-81
2022/04/15 08:06:16;;;;;;;6.33;5.53;;;;;;;9.75;76.61;101781.34;5005380;28;20586;-81
2022/04/15 08:08:44;;;;;;;7.83;6.00;;;;;;;9.80;76.16;101786.47;4997009;28;20235;-81
2022/04/15 08:11:10;;;;;;;6.10;5.50;;;;;;;9.83;76.08;101799.66;5004201;28;20214;-81
2022/04/15 08:13:38;;;;;;;5.70;5.13;;;;;;;9.89;75.70;101799.38;5000360;28;20200;-80
2022/04/15 08:16:06;;;;;;;6.67;5.37;;;;;;;9.91;75.79;101803.72;5006897;28;20227;-81
2022/04/15 08:18:33;;;;;;;6.10;5.50;;;;;;;9.92;75.46;101807.25;5008579;28;20286;-80
2022/04/15 08:20:59;;;;;;;6.17;5.33;;;;;;;9.94;74.85;101811.56;4999866;28;20211;-81
2022/04/15 08:23:26;;;;;;;6.30;5.03;;;;;;;9.95;75.38;101810.66;5004139;28;20708;-81
2022/04/15 08:25:52;;;;;;;5.13;4.57;;;;;;;9.97;74.60;101813.25;5005904;28;20222;-81
2022/04/15 08:28:20;;;;;;;5.13;4.63;;;;;;;9.99;74.72;101819.38;5006735;28;20215;-81
2022/04/15 08:30:47;;;;;;;5.13;4.57;;;;;;;10.03;74.70;101818.31;5001966;28;20223;-81
2022/04/15 08:33:14;;;;;;;6.07;5.47;;;;;;;10.06;74.71;101827.00;4997892;28;20203;-81
2022/04/15 08:35:40;;;;;;;5.93;4.93;;;;;;;10.07;74.45;101826.09;5006076;28;20223;-81
2022/04/15 08:38:08;;;;;;;5.73;5.03;;;;;;;10.10;74.46;101827.75;4998776;28;20217;-81
2022/04/15 08:40:36;;;;;;;5.57;4.87;;;;;;;10.14;74.40;101828.50;5004371;28;20214;-82
2022/04/15 08:43:05;;;;;;;6.23;4.93;;;;;;;10.14;73.61;101834.69;5005517;28;20607;-82
2022/04/15 08:45:31;;;;;;;6.63;5.30;;;;;;;10.14;73.69;101844.47;5006778;28;20230;-82
2022/04/15 08:48:00;;;;;;;5.67;4.93;;;;;;;10.14;73.74;101842.66;5006489;28;20875;-82
2022/04/15 08:50:28;;;;;;;6.47;5.40;;;;;;;10.16;73.59;101843.47;5003275;28;20214;-81
2022/04/15 08:52:55;;;;;;;5.87;5.27;;;;;;;10.18;73.77;101844.28;5003544;28;20207;-82
2022/04/15 08:55:22;;;;;;;5.80;5.27;;;;;;;10.20;73.96;101842.47;5008523;28;20231;-83
2022/04/15 08:57:49;;;;;;;6.33;5.57;;;;;;;10.23;73.47;101844.97;4998644;28;20276;-82
2022/04/15 09:00:16;;;;;;;7.33;6.13;;;;;;;10.27;74.08;101849.22;5003163;28;20203;-82
2022/04/15 09:02:43;;;;;;;7.20;6.13;;;;;;;10.34;74.16;101850.72;5008181;28;20696;-81
2022/04/15 09:05:12;;;;;;;6.83;6.20;;;;;;;10.43;73.90;101854.75;5006832;28;20282;-82
2022/04/15 09:07:40;;;;;;;6.97;6.37;;;;;;;10.49;73.86;101854.50;4999446;28;20206;-81
2022/04/15 09:10:10;;;;;;;6.83;6.17;;;;;;;10.55;73.98;101853.38;5004293;28;20214;-81
2022/04/15 09:12:37;;;;;;;8.27;7.37;;;;;;;10.55;73.67;101862.22;5008608;28;20209;-82
2022/04/15 09:15:12;;;;;;;7.40;6.67;;;;;;;10.56;73.48;101860.44;5009192;28;20231;-81
2022/04/15 09:17:39;;;;;;;7.87;7.00;;;;;;;10.57;73.07;101865.66;4999881;28;20294;-81
2022/04/15 09:20:09;;;;;;;9.90;7.47;;;;;;;10.58;72.78;101869.19;5000822;28;20291;-81
2022/04/15 09:22:38;;;;;;;9.37;7.40;;;;;;;10.60;72.96;101876.19;5008297;28;20202;-82
2022/04/15 09:25:06;;;;;;;8.30;7.50;;;;;;;10.61;72.72;101877.06;5002405;28;20226;-82
2022/04/15 09:27:35;;;;;;;9.23;7.37;;;;;;;10.61;72.68;101869.06;5004984;28;20214;-83
2022/04/15 09:30:01;;;;;;;9.23;8.10;;;;;;;10.62;72.48;101882.31;5006199;28;20227;-82
2022/04/15 09:32:30;;;;;;;9.53;7.80;;;;;;;10.64;72.76;101874.25;5001886;28;20547;-82
2022/04/15 09:34:58;;;;;;;9.53;8.63;;;;;;;10.66;72.61;101880.41;5004417;28;20220;-82
2022/04/15 09:37:26;;;;;;;9.53;8.63;;;;;;;10.65;72.35;101882.19;5001131;28;20682;-82
2022/04/15 09:40:12;;;;;;;10.10;9.20;;;;;;;10.65;72.08;101882.19;5001136;28;20222;-82
2022/04/15 09:42:45;;;;;;;10.50;9.50;;;;;;;10.65;72.27;101884.84;5006750;28;20266;-82
2022/04/15 09:45:14;;;;;;;9.80;8.80;;;;;;;10.68;72.00;101886.53;5019222;28;20234;-82
2022/04/15 09:47:41;;;;;;;10.47;9.33;;;;;;;10.67;71.85;101887.44;5019503;28;20203;-82
2022/04/15 09:50:20;;;;;;;9.63;8.63;;;;;;;10.71;72.16;101886.41;5013895;28;20207;-82
2022/04/15 09:52:47;;;;;;;10.00;8.93;;;;;;;10.74;72.30;101888.94;5014229;28;20210;-82
2022/04/15 09:55:19;;;;;;;11.67;9.77;;;;;;;10.75;72.36;101883.50;5021156;28;20227;-82
2022/04/15 09:57:47;;;;;;;11.30;9.33;;;;;;;10.78;72.76;101891.38;5013288;28;20200;-82
2022/04/15 10:00:15;;;;;;;9.17;8.10;;;;;;;10.82;72.17;101897.44;5003441;28;20190;-82
2022/04/15 10:02:43;;;;;;;10.27;8.70;;;;;;;10.85;72.34;101897.28;5006632;28;20275;-81
2022/04/15 10:05:10;;;;;;;9.00;8.20;;;;;;;10.89;71.98;101903.38;5008102;28;20223;-81
2022/04/15 10:07:38;;;;;;;8.70;7.90;;;;;;;10.91;71.78;101898.84;5010936;28;20205;-82
2022/04/15 10:10:05;;;;;;;9.13;8.17;;;;;;;10.97;71.90;101904.72;5006752;28;20215;-82
2022/04/15 10:12:39;;;;;;;9.63;8.47;;;;;;;11.05;71.77;101905.28;5007114;28;20585;-82
2022/04/15 10:15:07;;;;;;;10.17;8.87;;;;;;;11.17;71.83;101908.28;5009319;28;20594;-82
2022/04/15 10:17:34;;;;;;;10.13;8.93;;;;;;;11.25;71.77;101907.03;5001242;28;20213;-82
2022/04/15 10:20:02;;;;;;;9.13;7.93;;;;;;;11.35;71.52;101902.13;5006797;28;20294;-82
2022/04/15 10:22:29;;;;;;;9.13;8.07;;;;;;;11.41;70.51;101907.19;5012043;28;20211;-82
2022/04/15 10:24:56;;;;;;;9.70;8.13;;;;;;;11.48;70.63;101905.94;5018163;28;20691;-82
2022/04/15 10:27:26;;;;;;;10.17;8.43;;;;;;;11.54;70.58;101913.66;5013789;28;20207;-81
2022/04/15 10:30:02;;;;;;;8.53;7.33;;;;;;;11.60;70.36;101905.38;5003994;28;20398;-82
2022/04/15 10:32:29;;;;;;;9.53;8.33;;;;;;;11.65;69.79;101908.66;5004558;28;20209;-82
2022/04/15 10:34:59;;;;;;;10.90;8.27;;;;;;;11.71;69.83;101907.50;5005153;28;20211;-82
2022/04/15 10:37:47;;;;;;;8.67;7.67;;;;;;;11.76;69.45;101911.72;5004880;28;20201;-82
2022/04/15 10:40:22;;;;;;;8.53;7.73;;;;;;;11.82;69.49;101911.41;5005747;28;20207;-82
2022/04/15 10:42:49;;;;;;;10.50;8.30;;;;;;;11.86;69.13;101908.59;5008249;28;20224;-82
2022/04/15 10:45:27;;;;;;;9.10;8.03;;;;;;;11.86;69.06;101917.47;5003176;28;20243;-82
2022/04/15 10:47:59;;;;;;;10.30;8.97;;;;;;;11.88;69.08;101914.72;5003732;28;20449;-82
2022/04/15 10:50:28;;;;;;;9.37;8.37;;;;;;;11.90;68.96;101912.84;5007491;28;20208;-81
2022/04/15 10:53:18;;;;;;;10.33;9.00;;;;;;;11.94;69.13;101903.78;5003520;28;20711;-82
2022/04/15 10:55:48;;;;;;;9.03;7.67;;;;;;;12.00;69.13;101906.16;5008388;28;20222;-82
2022/04/15 10:58:17;;;;;;;8.23;7.33;;;;;;;12.06;68.92;101897.81;4998918;28;20204;-82
2022/04/15 11:03:31;;;;;;;9.03;8.13;;;;;;;12.21;68.79;101913.06;4999377;28;20310;-82
2022/04/15 11:05:59;;;;;;;10.43;7.90;;;;;;;12.27;67.95;101895.88;5001424;28;20292;-82
2022/04/15 11:08:28;;;;;;;7.70;6.77;;;;;;;12.37;68.05;101897.13;5003165;28;20209;-82
2022/04/15 11:11:04;;;;;;;10.50;8.20;;;;;;;12.46;67.65;101902.88;4998534;28;20229;-82
2022/04/15 11:13:34;;;;;;;10.57;8.53;;;;;;;12.56;67.33;101910.41;5001265;28;20200;-82
2022/04/15 11:16:10;;;;;;;9.50;8.20;;;;;;;12.62;67.19;101908.28;5001907;28;20326;-81
2022/04/15 11:18:48;;;;;;;10.10;8.50;;;;;;;12.69;67.18;101903.50;5009263;28;20205;-82
2022/04/15 11:21:19;;;;;;;9.83;7.70;;;;;;;12.73;66.52;101907.72;5004784;28;20289;-81
2022/04/15 11:23:48;;;;;;;8.47;7.00;;;;;;;12.77;66.27;101906.63;5013406;28;20211;-82
2022/04/15 11:26:16;;;;;;;6.27;5.47;;;;;;;12.81;65.92;101909.06;5015635;28;20235;-82
2022/04/15 11:28:45;;;;;;;7.83;5.77;;;;;;;12.89;65.50;101906.00;5005243;28;20200;-82
2022/04/15 11:31:24;;;;;;;7.83;6.33;;;;;;;12.90;65.49;101905.03;5015520;28;20210;-83